Time;durP1;ratioP1;P1;durP2;ratioP2;P2;SDS_P1;SDS_P2;PMS_P1;PMS_P2;Temp;Humidity;BMP_temperature;BMP_pressure;BME280_temperature;BME280_humidity;BME280_pressure;Samples;Min_cycle;Max_cycle;Signal;HPM_P1;HPM_P2
2023/09/19 00:00:47;;;;;;;2.37;1.50;;;;;;;22.15;55.46;100587.03;5109395;28;20380;-74
2023/09/19 00:03:12;;;;;;;3.20;1.55;;;;;;;22.02;55.37;100576.06;5107535;28;20282;-74
2023/09/19 00:05:38;;;;;;;2.15;1.20;;;;;;;22.12;55.15;100589.25;5103551;28;20023;-74
2023/09/19 00:08:04;;;;;;;2.95;1.63;;;;;;;21.98;55.30;100579.38;5108248;28;20035;-74
2023/09/19 00:10:34;;;;;;;2.58;1.70;;;;;;;22.14;55.42;100606.19;5109469;28;20028;-74
2023/09/19 00:13:05;;;;;;;1.95;1.27;;;;;;;21.91;55.11;100579.31;5113546;28;20028;-74
2023/09/19 00:15:31;;;;;;;2.30;1.40;;;;;;;22.13;55.14;100613.47;5103576;28;20024;-74
2023/09/19 00:17:56;;;;;;;3.35;1.10;;;;;;;22.06;55.18;100598.19;5112619;28;20020;-74
2023/09/19 00:20:25;;;;;;;2.65;1.13;;;;;;;21.92;55.40;100581.00;5119344;28;20024;-74
2023/09/19 00:22:54;;;;;;;1.75;1.10;;;;;;;22.12;55.28;100611.78;5111966;28;20020;-74
2023/09/19 00:25:20;;;;;;;2.63;1.20;;;;;;;22.05;55.33;100601.94;5114917;28;20026;-74
2023/09/19 00:27:47;;;;;;;4.00;1.20;;;;;;;21.98;55.42;100595.63;5117595;28;20028;-74
2023/09/19 00:30:19;;;;;;;3.30;1.35;;;;;;;21.89;55.18;100590.34;5105819;28;20536;-74
2023/09/19 00:32:47;;;;;;;1.75;1.10;;;;;;;22.08;55.15;100626.72;5119940;28;20024;-74
2023/09/19 00:35:15;;;;;;;2.30;1.02;;;;;;;21.81;55.21;100585.06;5109783;28;20080;-74
2023/09/19 00:37:41;;;;;;;2.00;1.10;;;;;;;21.81;55.15;100590.47;5113151;28;20031;-74
2023/09/19 00:40:11;;;;;;;2.08;1.13;;;;;;;21.90;54.82;100602.00;5106018;28;20024;-74
2023/09/19 00:42:38;;;;;;;5.18;1.80;;;;;;;22.03;55.32;100612.09;5111360;28;20031;-74
2023/09/19 00:45:05;;;;;;;2.13;1.20;;;;;;;21.93;55.09;100607.03;5115876;28;20083;-74
2023/09/19 00:47:30;;;;;;;2.53;1.25;;;;;;;22.04;55.15;100619.19;5107699;28;20054;-74
2023/09/19 00:49:56;;;;;;;1.73;0.90;;;;;;;21.92;54.76;100599.94;5109542;28;20039;-74
2023/09/19 00:52:22;;;;;;;4.95;1.85;;;;;;;22.05;54.91;100635.25;5118416;28;20035;-74
2023/09/19 00:54:48;;;;;;;2.85;1.27;;;;;;;21.89;55.02;100613.88;5107449;28;20473;-74
2023/09/19 00:57:14;;;;;;;1.50;0.98;;;;;;;21.91;55.13;100620.75;5113291;28;20058;-74
2023/09/19 00:59:41;;;;;;;1.98;1.20;;;;;;;21.88;55.26;100623.84;5120792;28;20017;-74
2023/09/19 01:02:06;;;;;;;2.33;0.90;;;;;;;22.03;54.82;100648.13;5106843;28;20024;-74
2023/09/19 01:04:32;;;;;;;2.35;1.10;;;;;;;22.03;55.05;100648.13;5110671;28;20031;-74
2023/09/19 01:06:57;;;;;;;2.38;1.25;;;;;;;21.83;55.02;100620.03;5121416;28;20032;-74
2023/09/19 01:09:23;;;;;;;3.10;1.10;;;;;;;21.96;55.02;100636.41;5113405;28;20135;-74
2023/09/19 01:11:50;;;;;;;2.35;1.20;;;;;;;22.01;55.07;100649.38;5112606;28;20023;-74
2023/09/19 01:14:24;;;;;;;2.95;1.30;;;;;;;21.75;55.14;100607.50;5110045;28;20056;-74
2023/09/19 01:17:11;;;;;;;3.33;1.05;;;;;;;22.00;55.17;100661.22;5112586;28;20028;-74
2023/09/19 01:19:58;;;;;;;2.85;1.42;;;;;;;21.98;54.78;100652.47;5113564;28;20051;-74
2023/09/19 01:22:28;;;;;;;2.97;1.30;;;;;;;;;;5114484;28;20385;-74
2023/09/19 01:25:06;;;;;;;2.53;1.27;;;;;;;21.96;55.04;100656.22;5124854;28;20065;-74
2023/09/19 01:28:01;;;;;;;1.40;0.95;;;;;;;21.95;54.88;100665.34;5111601;28;20062;-74
2023/09/19 01:30:32;;;;;;;1.40;1.10;;;;;;;21.73;54.90;100619.56;5089908;28;20031;-74
2023/09/19 01:32:59;;;;;;;2.95;1.50;;;;;;;21.84;54.76;100646.09;5110713;28;20422;-74
2023/09/19 01:35:24;;;;;;;2.42;1.20;;;;;;;21.75;55.13;100631.00;5107429;28;20036;-74
2023/09/19 01:37:49;;;;;;;1.58;0.75;;;;;;;21.93;54.82;100659.28;5109298;28;20134;-74
2023/09/19 01:40:17;;;;;;;2.20;1.20;;;;;;;21.75;54.71;100641.81;5111487;28;20016;-74
2023/09/19 01:42:46;;;;;;;2.13;1.05;;;;;;;21.93;54.80;100661.16;5108821;28;20476;-74
2023/09/19 01:45:14;;;;;;;1.40;1.00;;;;;;;21.89;55.08;100651.75;5110435;28;20020;-74
2023/09/19 01:47:50;;;;;;;2.83;1.25;;;;;;;21.88;54.91;100655.50;5109791;28;20032;-74
2023/09/19 01:50:18;;;;;;;3.28;1.52;;;;;;;21.91;55.01;100663.22;5110146;28;20057;-74
2023/09/19 01:52:53;;;;;;;2.30;1.23;;;;;;;21.74;54.86;100635.59;5121588;28;20024;-74
2023/09/19 01:55:19;;;;;;;2.70;1.13;;;;;;;21.89;54.66;100666.13;5114773;28;20036;-74
2023/09/19 01:57:54;;;;;;;3.45;1.30;;;;;;;21.89;54.71;100663.41;5105756;28;20028;-74
2023/09/19 02:00:21;;;;;;;2.20;0.90;;;;;;;21.89;54.65;100659.88;5122099;28;20032;-74
2023/09/19 02:02:47;;;;;;;3.28;1.80;;;;;;;21.86;54.68;100654.84;5111716;28;20035;-74
2023/09/19 02:05:13;;;;;;;2.60;1.17;;;;;;;21.76;54.89;100640.81;5098772;28;20024;-74
2023/09/19 02:07:40;;;;;;;2.58;1.05;;;;;;;21.87;54.66;100673.59;5112097;28;20035;-74
2023/09/19 02:10:06;;;;;;;1.70;1.02;;;;;;;21.81;54.86;100652.72;5122570;28;20050;-74
2023/09/19 02:12:32;;;;;;;2.33;1.10;;;;;;;21.87;54.52;100667.34;5107557;28;20024;-74
2023/09/19 02:14:59;;;;;;;4.70;1.52;;;;;;;21.73;54.75;100646.59;5122072;28;20020;-74
2023/09/19 02:17:25;;;;;;;1.80;1.35;;;;;;;21.81;54.63;100668.13;5122609;28;20465;-74
2023/09/19 02:19:52;;;;;;;4.32;1.38;;;;;;;21.70;54.51;100645.94;5108134;28;20083;-74
2023/09/19 02:22:17;;;;;;;3.10;1.38;;;;;;;21.56;54.72;100627.91;5118750;28;20079;-74
2023/09/19 02:24:43;;;;;;;1.92;1.00;;;;;;;21.84;54.63;100668.59;5120001;28;20020;-74
2023/09/19 02:27:08;;;;;;;2.35;1.00;;;;;;;21.59;54.72;100622.13;5109903;28;20032;-74
2023/09/19 02:29:36;;;;;;;1.85;1.02;;;;;;;21.80;54.73;100653.75;5116065;28;20036;-74
2023/09/19 02:32:02;;;;;;;3.03;1.05;;;;;;;21.74;54.69;100643.69;5111529;28;20024;-74
2023/09/19 02:34:27;;;;;;;2.17;1.02;;;;;;;21.70;54.72;100631.59;5111202;28;20028;-74
2023/09/19 02:36:54;;;;;;;1.90;1.08;;;;;;;21.69;54.83;100640.75;5121501;28;20028;-73
2023/09/19 02:39:20;;;;;;;2.00;1.08;;;;;;;21.57;54.57;100621.47;5110003;28;20032;-74
2023/09/19 02:41:46;;;;;;;1.50;0.93;;;;;;;21.57;54.47;100628.75;5113392;28;20030;-74
2023/09/19 02:44:11;;;;;;;4.57;1.40;;;;;;;21.76;54.73;100665.16;5120838;28;20024;-74
2023/09/19 02:46:37;;;;;;;2.10;1.10;;;;;;;21.30;54.39;100590.59;5112945;28;20046;-74
2023/09/19 02:49:06;;;;;;;2.20;1.20;;;;;;;21.80;54.57;100678.13;5115517;28;20074;-74
2023/09/19 02:51:32;;;;;;;1.83;1.17;;;;;;;21.79;54.49;100676.47;5113922;28;20028;-74
2023/09/19 02:53:59;;;;;;;2.22;1.30;;;;;;;21.61;54.63;100647.09;5106596;28;20483;-74
2023/09/19 02:56:24;;;;;;;2.92;1.02;;;;;;;21.71;54.53;100679.28;5114043;28;20081;-74
2023/09/19 02:58:51;;;;;;;2.63;1.27;;;;;;;21.75;54.45;100675.16;5104767;28;20023;-74
2023/09/19 03:01:18;;;;;;;2.33;1.10;;;;;;;21.78;54.66;100688.28;5110363;28;20016;-74
2023/09/19 03:03:43;;;;;;;1.90;1.27;;;;;;;21.71;54.50;100674.72;5104347;28;20450;-74
2023/09/19 03:06:12;;;;;;;2.42;1.10;;;;;;;21.78;54.67;100692.88;5110747;28;20080;-74
2023/09/19 03:08:39;;;;;;;;;;;;;;;21.77;54.38;100689.31;5113595;28;20118;-74
2023/09/19 03:11:05;;;;;;;2.78;0.95;;;;;;;21.63;54.57;100674.00;5117771;28;20463;-74
2023/09/19 03:13:34;;;;;;;2.83;1.40;;;;;;;21.55;54.63;100666.84;5104877;28;20028;-74
2023/09/19 03:16:00;;;;;;;3.08;1.42;;;;;;;21.58;54.48;100666.47;5115069;28;20023;-74
2023/09/19 03:18:26;;;;;;;2.83;1.40;;;;;;;21.56;54.64;100659.56;5116701;28;20028;-74
2023/09/19 03:21:00;;;;;;;2.45;1.23;;;;;;;21.62;54.44;100673.16;5108693;28;20027;-74
2023/09/19 03:23:27;;;;;;;2.30;1.02;;;;;;;21.73;54.64;100689.91;5115570;28;20028;-74
2023/09/19 03:25:52;;;;;;;1.98;1.10;;;;;;;21.72;54.46;100683.66;5113760;28;20024;-74
2023/09/19 03:28:18;;;;;;;2.42;1.20;;;;;;;21.58;54.34;100661.03;5107428;28;20453;-74
2023/09/19 03:30:43;;;;;;;4.90;1.50;;;;;;;21.54;54.62;100664.34;5110048;28;20027;-74
2023/09/19 03:33:11;;;;;;;2.20;1.05;;;;;;;21.54;54.46;100672.44;5112076;28;20362;-74
2023/09/19 03:35:37;;;;;;;3.38;1.30;;;;;;;21.43;54.55;100655.66;5119507;28;20110;-74
2023/09/19 03:38:04;;;;;;;2.40;1.55;;;;;;;21.64;54.38;100689.19;5093251;28;20020;-74
2023/09/19 03:40:29;;;;;;;2.75;1.40;;;;;;;21.69;54.52;100692.97;5104694;28;20030;-74
2023/09/19 03:42:54;;;;;;;2.22;1.23;;;;;;;21.62;54.26;100686.69;5109064;28;20067;-74
2023/09/19 03:45:20;;;;;;;4.05;1.63;;;;;;;21.69;54.40;100701.09;5106507;28;20051;-74
2023/09/19 03:47:48;;;;;;;2.15;1.10;;;;;;;21.68;54.42;100691.31;5107245;28;20036;-74
2023/09/19 03:50:17;;;;;;;2.58;1.35;;;;;;;21.51;54.47;100662.84;5107762;28;20024;-74
2023/09/19 03:52:43;;;;;;;2.60;1.45;;;;;;;21.67;54.27;100683.41;5106788;28;20024;-74
2023/09/19 03:55:09;;;;;;;2.22;1.30;;;;;;;21.67;54.36;100678.00;5118191;28;20020;-74
2023/09/19 03:57:35;;;;;;;2.38;1.13;;;;;;;21.65;54.48;100678.16;5109412;28;20047;-74
2023/09/19 04:00:01;;;;;;;3.35;1.58;;;;;;;21.64;54.33;100673.78;5107597;28;20031;-74
2023/09/19 04:02:32;;;;;;;2.45;1.15;;;;;;;21.24;54.46;100610.31;5106796;28;20028;-74
2023/09/19 04:04:58;;;;;;;3.05;1.38;;;;;;;21.62;54.34;100664.19;5109965;28;20088;-74
2023/09/19 04:07:23;;;;;;;3.20;1.13;;;;;;;21.42;54.32;100640.47;5108969;28;20035;-74
2023/09/19 04:09:49;;;;;;;2.75;1.30;;;;;;;21.62;54.13;100675.88;5100476;28;20044;-74
2023/09/19 04:12:16;;;;;;;3.13;1.30;;;;;;;21.52;54.13;100669.91;5118284;28;20032;-74
2023/09/19 04:14:42;;;;;;;4.53;1.48;;;;;;;21.47;54.17;100664.25;5115063;27;20020;-74
2023/09/19 04:17:07;;;;;;;4.78;1.45;;;;;;;21.57;54.06;100693.69;5111886;28;20531;-74
2023/09/19 04:19:32;;;;;;;3.47;1.17;;;;;;;21.61;54.12;100698.50;5119510;28;20053;-74
2023/09/19 04:21:58;;;;;;;3.78;1.40;;;;;;;21.61;54.04;100711.22;5122568;28;20024;-74
2023/09/19 04:24:23;;;;;;;3.28;1.30;;;;;;;20.87;54.07;100601.34;5111714;28;20034;-74
2023/09/19 04:26:48;;;;;;;2.85;1.35;;;;;;;21.61;54.25;100730.16;5121192;28;20035;-74
2023/09/19 04:29:14;;;;;;;2.88;1.35;;;;;;;21.59;54.16;100719.53;5126265;28;20043;-74
2023/09/19 04:31:40;;;;;;;2.17;1.30;;;;;;;21.53;54.14;100714.03;5105834;28;20018;-74
2023/09/19 04:34:05;;;;;;;3.58;1.92;;;;;;;21.42;53.96;100705.41;5117252;28;20028;-74
2023/09/19 04:36:31;;;;;;;2.38;1.20;;;;;;;21.52;54.27;100729.44;5124233;28;20058;-74
2023/09/19 04:38:56;;;;;;;2.05;1.00;;;;;;;21.36;54.02;100708.84;5118265;28;20030;-74
2023/09/19 04:41:22;;;;;;;3.88;1.77;;;;;;;21.56;54.03;100746.97;5124490;28;20062;-74
2023/09/19 04:43:49;;;;;;;2.85;1.45;;;;;;;21.30;54.23;100704.16;5110996;28;20496;-74
2023/09/19 04:46:14;;;;;;;5.10;1.75;;;;;;;21.48;53.74;100738.13;5123390;28;20032;-74
2023/09/19 04:48:40;;;;;;;2.47;1.10;;;;;;;21.50;53.79;100734.19;5115305;28;20068;-74
2023/09/19 04:51:05;;;;;;;4.57;1.67;;;;;;;21.46;53.78;100746.44;5109076;28;20043;-74
2023/09/19 04:53:30;;;;;;;2.17;1.27;;;;;;;21.55;53.83;100752.56;5120246;28;20039;-74
2023/09/19 04:55:56;;;;;;;2.75;1.23;;;;;;;21.47;53.79;100742.69;5117409;28;20023;-74
2023/09/19 04:58:22;;;;;;;2.45;1.10;;;;;;;21.53;53.95;100752.75;5111164;28;20370;-74
2023/09/19 05:00:48;;;;;;;2.85;1.10;;;;;;;21.39;53.71;100734.69;5107028;28;20026;-74
2023/09/19 05:03:13;;;;;;;3.42;1.25;;;;;;;21.40;53.87;100745.28;5116273;28;20032;-74
2023/09/19 05:05:40;;;;;;;2.85;1.27;;;;;;;21.52;53.87;100755.66;5111705;28;20050;-74
2023/09/19 05:08:06;;;;;;;2.88;1.55;;;;;;;21.51;53.72;100754.81;5114098;28;20039;-73
2023/09/19 05:10:32;;;;;;;3.50;1.17;;;;;;;21.28;53.89;100725.16;5110444;28;20036;-74
2023/09/19 05:12:57;;;;;;;3.20;1.42;;;;;;;21.00;53.70;100670.94;5116492;28;20059;-74
2023/09/19 05:15:23;;;;;;;4.78;1.73;;;;;;;21.37;53.70;100731.34;5121146;27;20054;-74
2023/09/19 05:17:54;;;;;;;4.07;1.38;;;;;;;21.15;53.82;100692.53;5122813;28;20034;-74
2023/09/19 05:20:37;;;;;;;3.15;1.67;;;;;;;21.29;53.54;100718.72;5117920;28;20048;-74
2023/09/19 05:23:07;;;;;;;3.42;1.30;;;;;;;21.47;53.71;100748.09;5116139;28;20028;-74
2023/09/19 05:25:37;;;;;;;2.70;1.27;;;;;;;21.39;53.58;100732.81;5113106;28;20511;-74
2023/09/19 05:28:05;;;;;;;2.90;1.45;;;;;;;21.00;53.78;100678.22;5121238;28;20028;-74
2023/09/19 05:30:31;;;;;;;3.40;1.30;;;;;;;21.46;53.48;100749.97;5112194;28;20109;-74
2023/09/19 05:32:57;;;;;;;3.33;1.35;;;;;;;21.45;53.54;100750.13;5111416;28;20055;-74
2023/09/19 05:35:22;;;;;;;2.47;1.20;;;;;;;21.45;53.56;100750.13;5102250;28;20020;-74
2023/09/19 05:37:50;;;;;;;4.95;1.67;;;;;;;21.03;53.64;100686.78;5116325;28;20024;-74
2023/09/19 05:40:19;;;;;;;3.08;1.48;;;;;;;21.44;53.75;100762.00;5107351;28;20023;-74
2023/09/19 05:42:44;;;;;;;3.92;1.45;;;;;;;21.44;53.44;100756.59;5117235;28;20056;-74
2023/09/19 05:45:12;;;;;;;3.38;1.17;;;;;;;21.43;53.55;100755.75;5116624;28;20477;-75
2023/09/19 05:47:38;;;;;;;4.13;1.45;;;;;;;21.43;53.48;100763.03;5092999;28;20016;-74
2023/09/19 05:50:05;;;;;;;3.85;1.25;;;;;;;21.29;53.32;100729.53;5108228;28;20119;-74
2023/09/19 05:52:30;;;;;;;5.85;2.75;;;;;;;21.35;53.36;100749.59;5107601;28;20027;-74
2023/09/19 05:54:56;;;;;;;3.00;1.27;;;;;;;21.41;53.32;100760.53;5111182;28;20052;-74
2023/09/19 05:57:22;;;;;;;3.58;1.55;;;;;;;21.41;53.14;100760.53;5121305;28;20028;-74
2023/09/19 05:59:49;;;;;;;4.00;1.40;;;;;;;21.34;53.34;100746.06;5111409;28;20023;-74
2023/09/19 06:02:15;;;;;;;4.03;1.50;;;;;;;21.07;53.33;100717.81;5113556;28;20031;-74
2023/09/19 06:04:40;;;;;;;3.17;1.27;;;;;;;21.23;53.37;100732.97;5091465;28;20107;-74
2023/09/19 06:07:06;;;;;;;1.85;1.05;;;;;;;21.08;53.34;100721.38;5110994;28;20015;-74
2023/09/19 06:09:32;;;;;;;4.40;1.80;;;;;;;21.02;53.38;100713.97;5096276;28;20054;-74
2023/09/19 06:11:57;;;;;;;2.88;1.27;;;;;;;21.27;53.49;100764.03;5119602;28;20038;-74
2023/09/19 06:14:24;;;;;;;3.10;1.45;;;;;;;21.35;53.60;100782.06;5113378;27;20028;-74
2023/09/19 06:16:50;;;;;;;3.15;1.60;;;;;;;21.38;53.44;100790.63;5110519;28;20020;-74
2023/09/19 06:19:15;;;;;;;4.03;1.50;;;;;;;21.38;53.08;100787.09;5109232;28;20091;-74
2023/09/19 06:21:40;;;;;;;2.55;1.05;;;;;;;21.37;53.15;100783.56;5104051;28;20019;-74
2023/09/19 06:24:06;;;;;;;4.03;1.88;;;;;;;21.10;53.13;100749.88;5117924;28;20027;-74
2023/09/19 06:26:32;;;;;;;4.28;1.65;;;;;;;21.18;53.15;100768.69;5108710;28;20799;-74
2023/09/19 06:28:57;;;;;;;3.22;1.42;;;;;;;21.07;53.11;100750.25;5111269;28;20053;-74
2023/09/19 06:31:26;;;;;;;4.65;1.48;;;;;;;21.36;53.30;100798.09;5112051;28;20111;-74
2023/09/19 06:33:51;;;;;;;4.38;1.40;;;;;;;21.16;53.20;100769.94;5107776;28;20044;-74
2023/09/19 06:36:17;;;;;;;3.42;1.88;;;;;;;21.07;53.17;100755.66;5111707;28;20036;-73
2023/09/19 06:38:42;;;;;;;3.17;1.30;;;;;;;21.35;53.31;100809.09;5113020;28;20027;-74
2023/09/19 06:41:08;;;;;;;2.80;1.27;;;;;;;21.30;53.01;100806.09;5107332;28;20032;-74
2023/09/19 06:43:34;;;;;;;2.83;1.30;;;;;;;21.12;53.06;100772.16;5118201;28;20036;-74
2023/09/19 06:46:00;;;;;;;3.72;1.75;;;;;;;21.35;53.06;100806.41;5110977;28;20044;-73
2023/09/19 06:48:26;;;;;;;3.45;1.58;;;;;;;21.34;53.22;100804.72;5106825;28;20051;-74
2023/09/19 06:50:55;;;;;;;5.30;2.20;;;;;;;21.29;53.31;100791.75;5115349;28;20057;-74
2023/09/19 06:53:23;;;;;;;3.90;1.52;;;;;;;21.35;53.27;100799.13;5109751;28;20689;-74
2023/09/19 06:55:49;;;;;;;3.80;1.50;;;;;;;21.07;53.20;100750.25;5109372;28;20023;-74
2023/09/19 06:58:16;;;;;;;2.97;1.30;;;;;;;21.03;52.94;100740.00;5114830;28;20049;-74
2023/09/19 07:00:42;;;;;;;2.80;1.50;;;;;;;21.15;53.28;100758.28;5108540;28;20028;-74
2023/09/19 07:03:11;;;;;;;4.00;1.67;;;;;;;21.26;53.39;100778.59;5113593;28;20034;-74
2023/09/19 07:05:37;;;;;;;;;;;;;;;21.35;52.88;100792.88;5109050;28;20024;-74
2023/09/19 07:08:03;;;;;;;3.30;1.45;;;;;;;21.13;52.99;100754.06;5103164;28;19979;-74
2023/09/19 07:10:28;;;;;;;3.05;1.50;;;;;;;21.34;52.92;100780.38;5115358;28;20058;-74
2023/09/19 07:12:57;;;;;;;2.78;1.27;;;;;;;21.28;52.99;100783.78;5112815;28;20037;-74
2023/09/19 07:15:24;;;;;;;2.53;1.33;;;;;;;21.01;53.20;100732.06;5107372;27;20594;-73
2023/09/19 07:17:50;;;;;;;2.53;1.40;;;;;;;21.23;53.03;100781.66;5120956;28;20030;-74
2023/09/19 07:20:16;;;;;;;2.42;1.50;;;;;;;21.33;53.06;100786.84;5111231;28;20023;-74
2023/09/19 07:22:41;;;;;;;3.85;1.30;;;;;;;21.15;53.15;100769.09;5107156;28;20023;-74
2023/09/19 07:25:07;;;;;;;4.35;1.75;;;;;;;20.93;52.88;100737.56;5119685;28;20027;-74
2023/09/19 07:27:33;;;;;;;3.83;1.33;;;;;;;21.34;53.08;100804.72;5110569;28;20031;-74
2023/09/19 07:29:58;;;;;;;4.20;1.88;;;;;;;21.34;53.02;100797.44;5110433;28;20049;-74
2023/09/19 07:32:24;;;;;;;3.00;1.35;;;;;;;20.82;52.91;100717.25;5116858;28;20036;-74
2023/09/19 07:34:49;;;;;;;4.22;1.20;;;;;;;21.04;53.16;100755.19;5107710;28;20047;-74
2023/09/19 07:37:15;;;;;;;2.80;1.45;;;;;;;21.12;52.93;100774.03;5112430;28;20101;-74
2023/09/19 07:39:41;;;;;;;2.85;1.10;;;;;;;21.35;52.93;100817.22;5115895;28;20016;-74
2023/09/19 07:42:07;;;;;;;2.95;1.50;;;;;;;21.34;53.05;100819.09;5120262;28;20023;-74
2023/09/19 07:44:32;;;;;;;6.07;1.70;;;;;;;21.20;53.17;100799.09;5097990;28;20078;-74
2023/09/19 07:46:57;;;;;;;3.67;1.50;;;;;;;21.28;53.08;100808.13;5114004;28;20028;-74
2023/09/19 07:49:22;;;;;;;3.70;1.52;;;;;;;21.18;52.96;100803.00;5120132;28;20024;-74
2023/09/19 07:51:48;;;;;;;2.53;1.33;;;;;;;21.37;53.03;100828.72;5117974;28;20038;-73
2023/09/19 07:54:14;;;;;;;3.17;1.33;;;;;;;21.36;53.02;100824.28;5110818;28;20044;-74
2023/09/19 07:56:39;;;;;;;3.72;1.52;;;;;;;21.36;53.04;100821.59;5112613;28;20030;-74
2023/09/19 07:59:04;;;;;;;3.20;1.45;;;;;;;21.12;53.07;100782.97;5104858;28;20028;-74
2023/09/19 08:01:30;;;;;;;3.13;1.77;;;;;;;21.18;53.22;100801.16;5113179;28;20027;-74
2023/09/19 08:03:55;;;;;;;4.25;1.88;;;;;;;21.36;52.91;100825.13;5107600;28;20087;-74
2023/09/19 08:06:20;;;;;;;3.90;1.65;;;;;;;21.22;52.80;100810.56;5119380;28;20588;-74
2023/09/19 08:08:46;;;;;;;3.45;1.48;;;;;;;21.37;52.97;100821.44;5105963;28;20052;-74
2023/09/19 08:11:12;;;;;;;3.40;1.50;;;;;;;21.23;53.04;100808.69;5108290;28;20024;-74
2023/09/19 08:13:43;;;;;;;4.30;1.35;;;;;;;21.17;53.04;100799.47;5112659;28;20024;-74
2023/09/19 08:16:10;;;;;;;2.45;1.40;;;;;;;21.10;53.24;100790.41;5091360;28;20024;-74
2023/09/19 08:18:44;;;;;;;2.92;1.52;;;;;;;21.17;53.20;100801.34;5107729;28;20085;-74
2023/09/19 08:21:11;;;;;;;3.30;1.40;;;;;;;21.18;53.13;100803.00;5112843;28;20016;-74
2023/09/19 08:23:38;;;;;;;3.17;1.45;;;;;;;21.37;52.89;100832.25;5105559;28;20031;-74
2023/09/19 08:26:06;;;;;;;3.35;1.50;;;;;;;21.34;53.03;100831.78;5109206;28;20031;-74
2023/09/19 08:28:33;;;;;;;2.78;1.30;;;;;;;21.15;53.16;100806.94;5107962;28;20362;-74
2023/09/19 08:31:04;;;;;;;3.53;1.30;;;;;;;21.18;52.72;100801.16;5104883;28;20048;-74
2023/09/19 08:33:31;;;;;;;2.22;1.23;;;;;;;21.16;53.02;100799.66;5109827;28;20031;-74
2023/09/19 08:35:56;;;;;;;3.40;1.40;;;;;;;21.00;53.18;100765.53;5108216;28;20032;-74
2023/09/19 08:38:21;;;;;;;2.63;1.30;;;;;;;21.14;53.02;100788.19;5108495;28;20024;-74
2023/09/19 08:40:47;;;;;;;2.90;1.27;;;;;;;21.30;53.27;100815.03;5120343;28;20109;-74
2023/09/19 08:43:12;;;;;;;3.13;1.23;;;;;;;21.41;53.17;100827.31;5120016;28;20032;-74
2023/09/19 08:45:39;;;;;;;2.80;1.30;;;;;;;21.18;53.28;100797.59;5098898;28;20030;-74
2023/09/19 08:48:24;;;;;;;3.08;1.42;;;;;;;21.43;53.13;100833.34;5112539;28;20111;-74
2023/09/19 08:51:01;;;;;;;4.57;2.03;;;;;;;21.42;53.17;100835.22;5118857;28;20115;-74
2023/09/19 08:53:42;;;;;;;3.50;1.55;;;;;;;21.43;53.00;100834.19;5101983;28;20028;-74
2023/09/19 08:56:09;;;;;;;3.47;1.55;;;;;;;21.44;53.32;100835.03;5117131;28;20023;-74
2023/09/19 08:58:41;;;;;;;3.90;1.38;;;;;;;21.42;53.18;100826.28;5110074;28;20036;-74
2023/09/19 09:01:08;;;;;;;3.60;1.17;;;;;;;21.26;53.52;100802.09;5115606;28;20039;-74
2023/09/19 09:03:34;;;;;;;2.45;1.20;;;;;;;21.23;53.30;100792.47;5106493;28;20028;-74
2023/09/19 09:06:01;;;;;;;2.88;1.40;;;;;;;21.39;53.24;100821.22;5111628;27;20027;-74
2023/09/19 09:08:26;;;;;;;3.42;1.52;;;;;;;21.46;53.43;100816.75;5117061;28;20096;-74
2023/09/19 09:10:52;;;;;;;3.42;1.67;;;;;;;21.46;53.13;100822.16;5118277;28;20032;-74
2023/09/19 09:13:17;;;;;;;3.83;1.65;;;;;;;21.46;53.11;100820.28;5107482;28;20118;-74
2023/09/19 09:15:48;;;;;;;2.92;1.25;;;;;;;21.42;53.23;100828.97;5117775;27;20073;-74
2023/09/19 09:18:13;;;;;;;1.75;1.10;;;;;;;21.49;53.40;100840.69;5111822;28;20028;-74
2023/09/19 09:20:38;;;;;;;2.42;1.35;;;;;;;21.42;53.08;100828.97;5118515;28;20042;-74
2023/09/19 09:23:04;;;;;;;5.13;1.55;;;;;;;21.32;53.12;100795.94;5121579;28;20551;-74
2023/09/19 09:25:54;;;;;;;3.47;1.40;;;;;;;21.50;53.02;100822.63;5109003;28;20028;-74
2023/09/19 09:28:28;;;;;;;4.05;1.27;;;;;;;21.26;53.26;100780.44;5122885;28;20036;-74
2023/09/19 09:30:54;;;;;;;4.38;1.75;;;;;;;21.40;53.28;100809.38;5114005;28;20022;-74
2023/09/19 09:33:21;;;;;;;4.47;1.48;;;;;;;21.54;53.34;100818.53;5113140;28;20032;-74
2023/09/19 09:35:56;;;;;;;2.80;1.08;;;;;;;21.31;53.42;100781.56;5119865;28;20020;-74
2023/09/19 09:38:32;;;;;;;3.22;1.58;;;;;;;21.33;53.28;100786.84;5113208;27;20040;-74
2023/09/19 09:41:06;;;;;;;2.53;1.23;;;;;;;21.55;53.43;100814.78;5101204;28;20024;-74
2023/09/19 09:43:39;;;;;;;2.00;1.30;;;;;;;21.56;53.28;100811.03;5118191;28;20030;-74
2023/09/19 09:46:50;;;;;;;2.97;1.52;;;;;;;21.39;53.22;100795.00;5105816;28;20045;-74
2023/09/19 09:52:00;;;;;;;3.20;1.45;;;;;;;21.56;53.20;100811.03;5112860;28;20046;-74
2023/09/19 09:54:33;;;;;;;2.83;1.27;;;;;;;21.56;53.24;100805.63;5108001;28;20031;-74
2023/09/19 09:57:23;;;;;;;3.17;1.48;;;;;;;21.49;53.42;100807.41;5116055;28;20024;-74
2023/09/19 09:59:58;;;;;;;3.70;1.20;;;;;;;21.56;53.14;100811.88;5108993;28;20023;-74
2023/09/19 10:02:40;;;;;;;2.70;1.30;;;;;;;21.56;53.34;100802.94;5119412;28;20028;-74
2023/09/19 10:05:34;;;;;;;2.35;1.38;;;;;;;21.56;53.42;100817.28;5112599;28;20065;-74
2023/09/19 10:08:12;;;;;;;2.42;1.40;;;;;;;21.55;53.36;100818.31;5112576;28;20035;-74
2023/09/19 10:10:53;;;;;;;3.30;1.63;;;;;;;21.55;53.58;100812.91;5110183;28;20032;-74
2023/09/19 10:13:21;;;;;;;3.78;1.45;;;;;;;21.34;53.55;100761.47;5106294;28;20032;-74
2023/09/19 10:15:51;;;;;;;4.33;2.23;;;;;;;21.56;53.62;100813.75;5109794;27;20028;-74
2023/09/19 10:18:20;;;;;;;2.65;1.30;;;;;;;21.57;53.70;100808.13;5106506;28;20291;-73
2023/09/19 10:20:46;;;;;;;2.45;1.13;;;;;;;21.57;53.49;100799.19;5106623;28;20027;-74
2023/09/19 10:23:20;;;;;;;2.83;1.25;;;;;;;21.57;53.28;100801.91;5113264;28;20087;-74
2023/09/19 10:25:47;;;;;;;3.75;1.30;;;;;;;21.30;53.54;100752.00;5107507;28;20039;-74
2023/09/19 10:28:13;;;;;;;3.40;1.50;;;;;;;21.47;53.48;100772.44;5110053;28;20366;-74
2023/09/19 10:30:49;;;;;;;2.05;1.30;;;;;;;21.47;53.33;100769.75;5110612;28;20031;-74
2023/09/19 10:33:16;;;;;;;2.45;1.17;;;;;;;21.59;53.51;100786.34;5108311;28;20035;-74
2023/09/19 10:35:43;;;;;;;4.32;1.58;;;;;;;21.53;53.23;100771.66;5109412;28;20033;-74
2023/09/19 10:38:14;;;;;;;2.17;1.17;;;;;;;21.26;53.36;100726.38;5109195;28;20560;-74
2023/09/19 10:40:46;;;;;;;2.47;1.40;;;;;;;21.45;53.54;100760.97;5108241;28;20020;-74
2023/09/19 10:43:19;;;;;;;2.28;1.30;;;;;;;21.55;53.50;100788.56;5095969;28;20027;-74
2023/09/19 10:45:46;;;;;;;3.13;1.27;;;;;;;21.62;53.50;100794.91;5120982;28;20020;-74
2023/09/19 10:48:12;;;;;;;3.08;1.52;;;;;;;21.61;53.52;100793.22;5107132;28;20028;-74
2023/09/19 10:50:51;;;;;;;2.65;1.27;;;;;;;21.55;53.43;100785.88;5111960;28;20057;-74
2023/09/19 10:53:16;;;;;;;;;;;;;;;21.63;53.38;100799.28;5120986;28;20028;-74
2023/09/19 10:55:48;;;;;;;4.20;1.55;;;;;;;21.25;53.61;100722.84;5104340;28;20289;-74
2023/09/19 10:58:24;;;;;;;1.90;1.30;;;;;;;21.38;53.40;100744.66;5112255;28;20042;-74
2023/09/19 11:00:55;;;;;;;2.55;1.52;;;;;;;21.64;53.49;100775.78;5103963;28;20027;-74
2023/09/19 11:03:23;;;;;;;2.33;1.40;;;;;;;21.58;53.50;100760.28;5104604;28;20054;-74
2023/09/19 11:06:06;;;;;;;3.38;1.70;;;;;;;21.52;53.58;100742.94;5112350;28;20027;-74
2023/09/19 11:09:21;;;;;;;3.20;1.30;;;;;;;21.63;53.71;100753.28;5119117;28;20079;-74
2023/09/19 11:11:46;;;;;;;3.30;1.40;;;;;;;21.60;53.61;100742.84;5114851;28;20035;-74
2023/09/19 11:14:28;;;;;;;;;;;;;;;21.66;53.70;100758.34;5115270;27;20091;-74
2023/09/19 11:17:17;;;;;;;3.95;1.50;;;;;;;21.66;53.72;100752.06;5110280;28;19910;-74
2023/09/19 11:20:01;;;;;;;;;;;;;;;21.66;53.55;100739.38;5117785;28;20031;-74
2023/09/19 11:22:49;;;;;;;2.72;1.58;;;;;;;21.63;53.63;100731.66;5109081;28;19907;-74
2023/09/19 11:25:30;;;;;;;3.17;1.63;;;;;;;21.58;53.61;100722.41;5115583;28;20023;-74
2023/09/19 11:28:17;;;;;;;3.97;1.70;;;;;;;21.64;53.58;100722.50;5120751;28;20035;-74
2023/09/19 11:30:48;;;;;;;3.10;1.73;;;;;;;21.53;53.46;100714.03;5122168;28;20063;-74
2023/09/19 11:33:23;;;;;;;3.47;1.88;;;;;;;21.66;53.54;100739.38;5114678;28;20036;-74
2023/09/19 11:36:09;;;;;;;4.10;1.70;;;;;;;21.67;53.67;100741.06;5109545;28;20039;-74